createdAt,value
2023-01-11T00:00:10.514Z,77.21
2023-01-11T00:03:12.974Z,77.37
2023-01-11T00:06:15.127Z,76.83
2023-01-11T00:09:17.487Z,77.46
2023-01-11T00:12:21.894Z,77.34
2023-01-11T00:15:23.739Z,77.46
2023-01-11T00:18:25.739Z,77.52
2023-01-11T00:21:27.897Z,78.04
2023-01-11T00:24:30.229Z,77.55
2023-01-11T00:27:32.461Z,76.86
2023-01-11T00:30:35.946Z,76.82
2023-01-11T00:33:37.899Z,76.81
2023-01-11T00:36:39.791Z,76.81
2023-01-11T00:39:44.901Z,77.53
2023-01-11T00:43:05.650Z,77.49
2023-01-11T00:46:27.900Z,77.63
2023-01-11T00:49:32.564Z,77.58
2023-01-11T00:52:34.353Z,77.80
2023-01-11T00:55:36.887Z,77.46
2023-01-11T00:58:39.086Z,78.07
2023-01-11T01:01:41.835Z,77.61
2023-01-11T01:04:44.063Z,77.38
2023-01-11T01:07:47.234Z,77.43
2023-01-11T01:10:52.615Z,77.63
2023-01-11T01:14:13.170Z,77.31
2023-01-11T01:17:15.108Z,77.42
2023-01-11T01:20:17.468Z,77.30
2023-01-11T01:23:19.514Z,77.44
2023-01-11T01:26:23.510Z,77.55
2023-01-11T01:29:26.272Z,77.51
2023-01-11T01:32:29.762Z,77.28
2023-01-11T01:35:35.215Z,78.12
2023-01-11T01:38:37.647Z,77.23
2023-01-11T01:41:39.821Z,77.67
2023-01-11T01:45:09.996Z,77.72
2023-01-11T01:48:18.395Z,76.68
2023-01-11T01:51:46.611Z,76.88
2023-01-11T01:54:49.812Z,77.43
2023-01-11T01:57:53.888Z,77.33
2023-01-11T02:00:56.288Z,77.59
2023-01-11T02:03:59.812Z,77.48
2023-01-11T02:07:17.712Z,77.69
2023-01-11T02:10:23.420Z,78.19
2023-01-11T02:13:30.257Z,77.60
2023-01-11T02:16:34.152Z,77.03
2023-01-11T02:19:36.027Z,77.00
2023-01-11T02:23:25.869Z,77.33
2023-01-11T02:26:47.341Z,76.93
2023-01-11T02:29:58.822Z,77.62
2023-01-11T02:33:22.186Z,77.44
2023-01-11T02:36:25.446Z,77.69
2023-01-11T02:39:39.462Z,77.72
2023-01-11T02:43:21.307Z,77.77
2023-01-11T02:46:28.648Z,77.64
2023-01-11T02:50:04.008Z,77.61
2023-01-11T02:53:24.777Z,78.20
2023-01-11T02:56:31.146Z,77.61
2023-01-11T02:59:36.357Z,78.13
2023-01-11T03:02:38.569Z,77.56
2023-01-11T03:05:46.280Z,77.63
2023-01-11T03:09:08.021Z,77.07
2023-01-11T03:12:51.164Z,78.86
2023-01-11T03:16:25.208Z,78.97
2023-01-11T03:19:54.853Z,78.89
2023-01-11T03:23:08.072Z,81.82
2023-01-11T03:26:12.891Z,80.56
2023-01-11T03:29:35.860Z,80.98
2023-01-11T03:33:26.569Z,81.91
2023-01-11T03:36:39.374Z,81.85
2023-01-11T03:39:47.452Z,81.17
2023-01-11T03:43:10.995Z,80.64
2023-01-11T03:46:21.130Z,79.78
2023-01-11T03:49:37.111Z,79.41
2023-01-11T03:52:42.906Z,78.99
2023-01-11T03:55:52.492Z,78.71
2023-01-11T03:58:55.612Z,78.55
2023-01-11T04:01:58.523Z,78.68
2023-01-11T04:05:00.792Z,78.73
2023-01-11T04:08:04.014Z,78.77
2023-01-11T04:11:06.509Z,78.67
2023-01-11T04:14:08.938Z,78.98
2023-01-11T04:17:11.027Z,78.76
2023-01-11T04:20:13.272Z,78.50
2023-01-11T04:23:15.588Z,78.65
2023-01-11T04:26:17.860Z,79.03
2023-01-11T04:29:19.922Z,78.87
2023-01-11T04:32:22.430Z,79.33
2023-01-11T04:35:26.175Z,78.89
2023-01-11T04:38:28.642Z,78.70
2023-01-11T04:41:51.035Z,78.61
2023-01-11T04:44:54.430Z,78.92
2023-01-11T04:47:57.586Z,78.71
2023-01-11T04:50:59.466Z,79.09
2023-01-11T04:54:01.469Z,79.11
2023-01-11T04:57:03.873Z,78.50
2023-01-11T05:00:11.060Z,79.03
2023-01-11T05:03:13.098Z,79.26
2023-01-11T05:06:16.108Z,79.26
2023-01-11T05:09:19.149Z,79.53
2023-01-11T05:12:22.450Z,79.82
2023-01-11T05:15:25.436Z,79.61
2023-01-11T05:18:29.302Z,79.56
2023-01-11T05:21:36.977Z,79.83
2023-01-11T05:24:38.992Z,79.62
2023-01-11T05:27:41.251Z,80.08
2023-01-11T05:30:43.216Z,79.98
2023-01-11T05:33:45.275Z,79.61
2023-01-11T05:36:47.647Z,80.54
2023-01-11T05:39:50.879Z,79.71
2023-01-11T05:42:53.063Z,79.55
2023-01-11T05:45:57.800Z,79.45
2023-01-11T05:49:02.040Z,79.42
2023-01-11T05:52:04.388Z,79.88
2023-01-11T05:55:07.475Z,79.81
2023-01-11T05:58:09.550Z,80.09
2023-01-11T06:01:12.430Z,79.45
2023-01-11T06:04:14.747Z,79.81
2023-01-11T06:07:17.794Z,79.40
2023-01-11T06:10:20.027Z,80.18
2023-01-11T06:13:26.504Z,80.27
2023-01-11T06:16:28.830Z,80.96
2023-01-11T06:19:31.458Z,81.44
2023-01-11T06:22:33.511Z,81.31
2023-01-11T06:25:37.645Z,82.09
2023-01-11T06:28:40.817Z,80.92
2023-01-11T06:31:43.985Z,81.62
2023-01-11T06:34:47.137Z,81.50
2023-01-11T06:37:50.176Z,81.47
2023-01-11T06:40:58.307Z,81.57
2023-01-11T06:44:02.636Z,81.52
2023-01-11T06:47:06.162Z,81.64
2023-01-11T06:50:08.783Z,81.71
2023-01-11T06:53:10.855Z,82.05
2023-01-11T06:56:19.174Z,81.32
2023-01-11T07:02:45.550Z,81.29
2023-01-11T07:05:53.758Z,81.46
2023-01-11T07:09:06.232Z,80.98
2023-01-11T07:12:09.808Z,81.64
2023-01-11T07:15:26.326Z,80.67
2023-01-11T07:18:33.882Z,79.33
2023-01-11T07:21:43.190Z,80.29
2023-01-11T07:25:29.051Z,79.84
2023-01-11T07:32:05.774Z,81.21
2023-01-11T07:35:11.457Z,81.32
2023-01-11T07:38:19.513Z,80.84
2023-01-11T07:41:42.754Z,80.61
2023-01-11T07:44:48.513Z,80.81
2023-01-11T07:47:54.426Z,80.54
2023-01-11T07:54:41.106Z,80.50
2023-01-11T08:01:15.643Z,80.25
2023-01-11T08:04:56.718Z,80.61
2023-01-11T08:08:39.172Z,80.28
2023-01-11T08:12:14.394Z,79.46
2023-01-11T08:15:22.868Z,79.14
2023-01-11T08:22:36.970Z,79.20
2023-01-11T08:25:39.355Z,78.52
2023-01-11T08:28:53.822Z,78.04
2023-01-11T08:32:20.045Z,77.73
2023-01-11T08:35:26.985Z,77.61
2023-01-11T08:38:49.841Z,77.69
2023-01-11T08:45:27.102Z,77.06
2023-01-11T08:49:14.513Z,76.64
2023-01-11T08:57:07.354Z,77.56
2023-01-11T09:00:15.830Z,76.77
2023-01-11T09:03:37.427Z,75.79
2023-01-11T09:07:16.065Z,76.10
2023-01-11T09:10:34.066Z,76.54
2023-01-11T09:13:48.063Z,76.96
2023-01-11T09:16:52.318Z,77.04
2023-01-11T09:19:57.114Z,77.03
2023-01-11T09:23:02.296Z,76.28
2023-01-11T09:26:04.935Z,74.33
2023-01-11T09:29:16.139Z,74.79
2023-01-11T09:32:21.950Z,74.95
2023-01-11T09:35:24.085Z,74.07
2023-01-11T09:38:31.008Z,73.82
2023-01-11T09:42:07.588Z,73.38
2023-01-11T09:45:19.477Z,72.28
2023-01-11T09:48:36.664Z,72.17
2023-01-11T09:51:39.914Z,71.36
2023-01-11T09:54:45.139Z,71.54
2023-01-11T09:58:27.960Z,71.25
2023-01-11T10:01:45.825Z,70.09
2023-01-11T10:05:33.428Z,70.57
2023-01-11T10:18:39.748Z,68.16
2023-01-11T10:20:47.148Z,66.24
2023-01-11T10:24:39.462Z,66.58
2023-01-11T10:28:00.662Z,65.63
2023-01-11T10:31:45.116Z,65.61
2023-01-11T10:35:01.159Z,64.13
2023-01-11T10:38:35.663Z,63.69
2023-01-11T10:42:51.872Z,62.48
2023-01-11T10:51:42.583Z,62.56
2023-01-11T10:54:53.889Z,62.95
2023-01-11T11:24:55.187Z,63.94
2023-01-11T11:29:24.876Z,64.02
2023-01-11T11:33:02.640Z,65.17
2023-01-11T11:36:17.242Z,65.88
2023-01-11T11:40:00.077Z,64.30
2023-01-11T11:43:20.743Z,64.18
2023-01-11T11:46:28.476Z,63.32
2023-01-11T11:49:33.909Z,64.36
2023-01-11T11:52:50.250Z,63.83
2023-01-11T11:56:17.349Z,62.78
2023-01-11T11:59:25.310Z,62.33
2023-01-11T12:02:45.460Z,61.69
2023-01-11T12:05:58.778Z,61.43
2023-01-11T12:09:05.827Z,62.06
2023-01-11T12:12:29.811Z,62.44
2023-01-11T12:19:52.394Z,62.81
2023-01-11T12:23:48.382Z,62.42
2023-01-11T12:27:38.442Z,62.18
2023-01-11T12:31:08.582Z,63.64
2023-01-11T12:34:37.642Z,62.53
2023-01-11T12:37:55.087Z,62.42
2023-01-11T12:41:07.909Z,61.98
2023-01-11T12:44:29.472Z,61.04
2023-01-11T12:47:39.690Z,60.59
2023-01-11T12:51:14.416Z,63.28
2023-01-11T12:54:45.473Z,62.84
2023-01-11T12:58:06.495Z,61.53
2023-01-11T13:01:19.134Z,61.66
2023-01-11T13:04:45.169Z,61.49
2023-01-11T13:07:59.901Z,61.50
2023-01-11T13:11:37.477Z,60.70
2023-01-11T13:19:33.250Z,61.98
2023-01-11T13:30:51.166Z,60.47
2023-01-11T13:34:12.662Z,62.58
2023-01-11T13:37:43.555Z,62.28
2023-01-11T13:41:01.183Z,61.14
2023-01-11T13:44:22.892Z,60.98
2023-01-11T13:47:38.342Z,61.25
2023-01-11T13:51:25.205Z,59.89
2023-01-11T13:54:58.705Z,60.32
2023-01-11T13:58:17.823Z,59.36
2023-01-11T14:01:27.790Z,60.50
2023-01-11T14:04:44.413Z,61.04
2023-01-11T14:08:24.049Z,61.36
2023-01-11T14:12:06.319Z,61.65
2023-01-11T14:15:08.575Z,63.57
2023-01-11T14:18:42.839Z,63.25
2023-01-11T14:22:21.020Z,63.20
2023-01-11T14:25:29.453Z,63.36
2023-01-11T14:28:44.391Z,64.63
2023-01-11T14:32:07.602Z,65.46
2023-01-11T14:35:37.985Z,65.57
2023-01-11T14:38:43.435Z,65.73
2023-01-11T14:42:31.268Z,65.62
2023-01-11T14:45:44.436Z,64.55
2023-01-11T14:49:24.095Z,64.79
2023-01-11T14:52:39.701Z,64.78
2023-01-11T14:55:47.335Z,64.77
2023-01-11T14:59:07.309Z,64.85
2023-01-11T15:02:10.369Z,65.16
2023-01-11T15:05:33.094Z,66.20
2023-01-11T15:08:43.339Z,66.95
2023-01-11T15:11:45.329Z,66.17
2023-01-11T15:15:01.978Z,65.52
2023-01-11T15:18:19.418Z,66.21
2023-01-11T15:21:27.209Z,66.70
2023-01-11T15:24:38.078Z,65.64
2023-01-11T15:27:43.027Z,66.16
2023-01-11T15:30:52.859Z,64.73
2023-01-11T15:33:55.832Z,65.79
2023-01-11T15:37:01.619Z,65.92
2023-01-11T15:40:10.935Z,68.21
2023-01-11T15:43:35.019Z,65.72
2023-01-11T15:47:22.212Z,66.67
2023-01-11T15:51:02.592Z,67.28
2023-01-11T15:54:19.705Z,67.78
2023-01-11T15:57:27.825Z,68.53
2023-01-11T16:00:55.527Z,68.27
2023-01-11T16:04:19.857Z,69.59
2023-01-11T16:07:44.550Z,69.11
2023-01-11T16:11:17.030Z,69.27
2023-01-11T16:14:40.979Z,69.50
2023-01-11T16:17:46.681Z,70.22
2023-01-11T16:21:23.831Z,69.65
2023-01-11T16:24:29.614Z,70.97
2023-01-11T16:27:34.487Z,70.82
2023-01-11T16:30:37.049Z,70.82
2023-01-11T16:33:39.102Z,71.85
2023-01-11T16:36:41.867Z,71.70
2023-01-11T16:39:44.422Z,72.03
2023-01-11T16:43:16.155Z,73.00
2023-01-11T16:46:47.284Z,71.86
2023-01-11T16:50:11.770Z,72.55
2023-01-11T16:53:16.036Z,73.92
2023-01-11T16:56:22.357Z,72.99
2023-01-11T16:59:30.991Z,73.88
2023-01-11T17:02:38.982Z,73.70
2023-01-11T17:05:41.127Z,73.48
2023-01-11T17:08:51.026Z,74.19
2023-01-11T17:11:53.671Z,74.58
2023-01-11T17:15:32.979Z,74.32
2023-01-11T17:18:38.927Z,74.05
2023-01-11T17:21:49.232Z,74.19
2023-01-11T17:25:04.433Z,74.34
2023-01-11T17:28:14.546Z,75.13
2023-01-11T17:31:33.675Z,75.81
2023-01-11T17:34:40.379Z,75.84
2023-01-11T17:37:45.463Z,75.31
2023-01-11T17:40:48.212Z,75.17
2023-01-11T17:44:09.007Z,75.71
2023-01-11T17:47:13.103Z,75.80
2023-01-11T17:50:27.006Z,75.24
2023-01-11T17:53:36.898Z,73.78
2023-01-11T17:56:41.953Z,73.04
2023-01-11T17:59:45.552Z,72.53
2023-01-11T18:02:49.139Z,71.74
2023-01-11T18:05:51.280Z,71.92
2023-01-11T18:08:58.543Z,72.48
2023-01-11T18:12:14.323Z,71.88
2023-01-11T18:15:38.381Z,72.73
2023-01-11T18:18:42.089Z,74.64
2023-01-11T18:21:53.356Z,73.24
2023-01-11T18:24:58.725Z,75.17
2023-01-11T18:28:19.455Z,75.84
2023-01-11T18:31:22.175Z,76.07
2023-01-11T18:34:29.294Z,76.62
2023-01-11T18:37:31.506Z,77.00
2023-01-11T18:40:35.828Z,78.26
2023-01-11T18:43:38.157Z,78.47
2023-01-11T18:46:40.223Z,77.77
2023-01-11T18:49:43.006Z,78.16
2023-01-11T18:52:45.502Z,78.07
2023-01-11T18:55:47.662Z,78.66
2023-01-11T18:58:49.855Z,78.26
2023-01-11T19:02:01.679Z,78.02
2023-01-11T19:05:20.149Z,78.29
2023-01-11T19:08:22.565Z,80.86
2023-01-11T19:11:25.718Z,79.60
2023-01-11T19:14:28.141Z,79.42
2023-01-11T19:17:31.876Z,79.35
2023-01-11T19:20:34.235Z,79.40
2023-01-11T19:23:37.157Z,79.83
2023-01-11T19:26:44.853Z,80.02
2023-01-11T19:29:47.316Z,79.32
2023-01-11T19:32:53.582Z,79.48
2023-01-11T19:35:55.526Z,80.44
2023-01-11T19:38:58.717Z,82.13
2023-01-11T19:42:02.565Z,82.34
2023-01-11T19:45:05.849Z,82.01
2023-01-11T19:48:08.906Z,81.53
2023-01-11T19:51:12.920Z,83.16
2023-01-11T19:54:16.224Z,81.69
2023-01-11T19:57:23.125Z,81.94
2023-01-11T20:00:25.255Z,82.45
2023-01-11T20:03:29.114Z,82.32
2023-01-11T20:06:32.584Z,82.21
2023-01-11T20:09:37.637Z,82.15
2023-01-11T20:12:39.688Z,81.42
2023-01-11T20:15:42.690Z,80.46
2023-01-11T20:18:51.132Z,80.37
2023-01-11T20:21:53.226Z,80.86
2023-01-11T20:24:56.217Z,80.53
2023-01-11T20:27:58.753Z,81.34
2023-01-11T20:31:02.222Z,81.39
2023-01-11T20:34:10.710Z,82.80
2023-01-11T20:37:15.997Z,82.76
2023-01-11T20:40:18.548Z,82.14
2023-01-11T20:43:20.724Z,81.52
2023-01-11T20:46:22.779Z,82.99
2023-01-11T20:49:31.546Z,82.58
2023-01-11T20:52:34.973Z,82.77
2023-01-11T20:55:37.180Z,82.49
2023-01-11T20:58:39.173Z,81.48
2023-01-11T21:01:41.555Z,81.16
2023-01-11T21:04:43.787Z,82.04
2023-01-11T21:07:46.965Z,81.66
2023-01-11T21:10:49.322Z,81.75
2023-01-11T21:13:55.322Z,81.06
2023-01-11T21:16:58.858Z,81.63
2023-01-11T21:20:00.911Z,81.19
2023-01-11T21:23:03.108Z,80.68
2023-01-11T21:26:13.331Z,81.58
2023-01-11T21:29:15.883Z,83.20
2023-01-11T21:32:20.671Z,83.26
2023-01-11T21:35:23.040Z,83.35
2023-01-11T21:38:25.390Z,82.81
2023-01-11T21:41:48.937Z,83.19
2023-01-11T21:44:51.291Z,81.93
2023-01-11T21:47:53.441Z,83.00
2023-01-11T21:50:56.704Z,82.74
2023-01-11T21:53:59.742Z,84.54
2023-01-11T21:57:02.465Z,84.43
2023-01-11T22:00:05.941Z,84.43
2023-01-11T22:03:08.307Z,83.82
2023-01-11T22:06:10.488Z,83.09
2023-01-11T22:09:13.146Z,82.92
2023-01-11T22:12:15.382Z,82.76
2023-01-11T22:15:18.354Z,82.26
2023-01-11T22:18:22.549Z,84.26
2023-01-11T22:21:26.402Z,83.28
2023-01-11T22:24:28.609Z,84.43
2023-01-11T22:27:32.493Z,84.63
2023-01-11T22:30:35.059Z,84.77
2023-01-11T22:33:37.065Z,83.77
2023-01-11T22:36:39.095Z,83.99
2023-01-11T22:39:42.795Z,83.39
2023-01-11T22:42:45.007Z,83.64
2023-01-11T22:45:59.492Z,83.76
2023-01-11T22:49:01.861Z,84.15
2023-01-11T22:52:03.998Z,84.09
2023-01-11T22:55:07.244Z,83.16
2023-01-11T22:58:11.142Z,82.82
2023-01-11T23:01:19.311Z,84.35
2023-01-11T23:04:21.693Z,84.34
2023-01-11T23:07:23.914Z,85.75
2023-01-11T23:10:25.820Z,85.88
2023-01-11T23:13:46.978Z,86.48
2023-01-11T23:16:49.996Z,85.04
2023-01-11T23:19:55.369Z,85.09
2023-01-11T23:22:57.513Z,84.99
2023-01-11T23:25:59.917Z,86.33
2023-01-11T23:29:02.273Z,85.90
2023-01-11T23:32:04.726Z,84.97
2023-01-11T23:35:09.150Z,85.18
2023-01-11T23:38:14.027Z,84.98
2023-01-11T23:41:37.765Z,85.15
2023-01-11T23:44:40.191Z,83.70
2023-01-11T23:47:43.273Z,84.21
2023-01-11T23:50:46.183Z,83.93
2023-01-11T23:53:50.568Z,83.02
2023-01-11T23:56:53.864Z,83.94
2023-01-11T23:59:56.633Z,84.93
